createdAt,value
2016-07-29T00:00:43.690Z,1007.47
2016-07-29T00:02:43.705Z,1007.46
2016-07-29T00:03:43.713Z,1007.43
2016-07-29T00:04:43.720Z,1007.46
2016-07-29T00:05:43.774Z,1007.45
2016-07-29T00:06:43.731Z,1007.4
2016-07-29T00:07:43.937Z,1007.45
2016-07-29T00:08:43.744Z,1007.46
2016-07-29T00:09:43.750Z,1007.4
2016-07-29T00:10:43.756Z,1007.4
2016-07-29T00:11:43.762Z,1007.4
2016-07-29T00:12:43.769Z,1007.38
2016-07-29T00:13:43.776Z,1007.41
2016-07-29T00:14:43.781Z,1007.43
2016-07-29T00:15:43.788Z,1007.4
2016-07-29T00:16:43.795Z,1007.33
2016-07-29T00:17:43.801Z,1007.31
2016-07-29T00:18:43.807Z,1007.3
2016-07-29T00:19:43.814Z,1007.33
2016-07-29T00:20:43.821Z,1007.37
2016-07-29T00:21:43.828Z,1007.38
2016-07-29T00:22:43.835Z,1007.38
2016-07-29T00:23:43.841Z,1007.42
2016-07-29T00:24:43.897Z,1007.48
2016-07-29T00:25:43.854Z,1007.5
2016-07-29T00:26:43.861Z,1007.51
2016-07-29T00:27:43.866Z,1007.46
2016-07-29T00:28:43.874Z,1007.44
2016-07-29T00:29:43.879Z,1007.38
2016-07-29T00:30:43.887Z,1007.4
2016-07-29T00:31:44.894Z,1007.36
2016-07-29T00:32:43.896Z,1007.34
2016-07-29T00:33:43.904Z,1007.3
2016-07-29T00:34:43.910Z,1007.27
2016-07-29T00:35:43.916Z,1007.28
2016-07-29T00:36:43.921Z,1007.29
2016-07-29T00:37:43.928Z,1007.27
2016-07-29T00:38:43.934Z,1007.28
2016-07-29T00:39:43.941Z,1007.28
2016-07-29T00:40:43.946Z,1007.26
2016-07-29T00:41:43.953Z,1007.25
2016-07-29T00:42:43.959Z,1007.19
2016-07-29T00:43:43.964Z,1007.18
2016-07-29T00:44:43.971Z,1007.17
2016-07-29T00:45:43.976Z,1007.18
2016-07-29T00:46:43.983Z,1007.19
2016-07-29T00:47:43.988Z,1007.2
2016-07-29T00:48:43.993Z,1007.2
2016-07-29T00:49:44.001Z,1007.19
2016-07-29T00:50:44.007Z,1007.22
2016-07-29T00:51:44.012Z,1007.23
2016-07-29T00:52:44.018Z,1007.23
2016-07-29T00:53:45.026Z,1007.22
2016-07-29T00:55:44.035Z,1007.29
2016-07-29T00:56:44.043Z,1007.29
2016-07-29T00:57:44.049Z,1007.28
2016-07-29T00:58:44.056Z,1007.28
2016-07-29T00:59:44.063Z,1007.32
2016-07-29T01:00:44.068Z,1007.33
2016-07-29T01:01:44.074Z,1007.29
2016-07-29T01:02:44.082Z,1007.29
2016-07-29T01:03:44.089Z,1007.31
2016-07-29T01:04:44.094Z,1007.25
2016-07-29T01:05:44.098Z,1007.27
2016-07-29T01:06:44.106Z,1007.27
2016-07-29T01:07:44.113Z,1007.28
2016-07-29T01:08:44.118Z,1007.32
2016-07-29T01:09:44.122Z,1007.33
2016-07-29T01:10:44.129Z,1007.33
2016-07-29T01:11:44.136Z,1007.36
2016-07-29T01:12:44.140Z,1007.35
2016-07-29T01:13:44.148Z,1007.37
2016-07-29T01:14:44.154Z,1007.36
2016-07-29T01:15:45.263Z,1007.33
2016-07-29T01:16:44.167Z,1007.36
2016-07-29T01:17:44.172Z,1007.34
2016-07-29T01:18:44.180Z,1007.32
2016-07-29T01:19:44.185Z,1007.33
2016-07-29T01:20:44.190Z,1007.34
2016-07-29T01:21:44.200Z,1007.33
2016-07-29T01:22:44.202Z,1007.31
2016-07-29T01:23:44.207Z,1007.31
2016-07-29T01:24:44.213Z,1007.32
2016-07-29T01:25:44.219Z,1007.31
2016-07-29T01:26:44.226Z,1007.34
2016-07-29T01:27:44.230Z,1007.3
2016-07-29T01:28:44.235Z,1007.32
2016-07-29T01:29:44.242Z,1007.35
2016-07-29T01:30:45.370Z,1007.35
2016-07-29T01:31:44.254Z,1007.35
2016-07-29T01:32:44.261Z,1007.33
2016-07-29T01:33:44.266Z,1007.31
2016-07-29T01:34:44.271Z,1007.33
2016-07-29T01:35:44.276Z,1007.39
2016-07-29T01:36:44.283Z,1007.37
2016-07-29T01:37:44.288Z,1007.39
2016-07-29T01:38:44.301Z,1007.36
2016-07-29T01:39:44.298Z,1007.35
2016-07-29T01:40:44.305Z,1007.38
2016-07-29T01:41:44.310Z,1007.32
2016-07-29T01:42:44.316Z,1007.32
2016-07-29T01:43:44.319Z,1007.32
2016-07-29T01:44:44.327Z,1007.32
2016-07-29T01:45:44.330Z,1007.32
2016-07-29T01:46:44.335Z,1007.28
2016-07-29T01:47:44.346Z,1007.26
2016-07-29T01:48:44.347Z,1007.3
2016-07-29T01:49:44.353Z,1007.35
2016-07-29T01:50:44.358Z,1007.34
2016-07-29T01:51:44.364Z,1007.36
2016-07-29T01:52:45.272Z,1007.33
2016-07-29T01:53:44.375Z,1007.31
2016-07-29T01:55:44.388Z,1007.34
2016-07-29T01:56:44.392Z,1007.32
2016-07-29T01:57:44.398Z,1007.35
2016-07-29T01:58:44.406Z,1007.37
2016-07-29T01:59:44.410Z,1007.38
2016-07-29T02:00:44.416Z,1007.35
2016-07-29T02:01:44.420Z,1007.35
2016-07-29T02:02:44.429Z,1007.34
2016-07-29T02:03:44.434Z,1007.37
2016-07-29T02:04:44.438Z,1007.4
2016-07-29T02:05:44.446Z,1007.28
2016-07-29T02:06:44.450Z,1007.32
2016-07-29T02:07:44.455Z,1007.32
2016-07-29T02:08:44.461Z,1007.31
2016-07-29T02:09:44.468Z,1007.32
2016-07-29T02:10:44.473Z,1007.26
2016-07-29T02:11:44.477Z,1007.28
2016-07-29T02:12:44.484Z,1007.29
2016-07-29T02:13:44.488Z,1007.22
2016-07-29T02:14:45.497Z,1007.23
2016-07-29T02:15:44.547Z,1007.24
2016-07-29T02:16:44.505Z,1007.26
2016-07-29T02:17:44.510Z,1007.24
2016-07-29T02:18:44.517Z,1007.2
2016-07-29T02:19:44.521Z,1007.2
2016-07-29T02:20:44.528Z,1007.21
2016-07-29T02:21:44.534Z,1007.21
2016-07-29T02:22:44.539Z,1007.21
2016-07-29T02:23:44.545Z,1007.2
2016-07-29T02:24:44.551Z,1007.21
2016-07-29T02:25:44.557Z,1007.23
2016-07-29T02:26:44.563Z,1007.27
2016-07-29T02:27:44.570Z,1007.28
2016-07-29T02:28:44.576Z,1007.28
2016-07-29T02:29:44.580Z,1007.27
2016-07-29T02:30:44.586Z,1007.27
2016-07-29T02:31:44.593Z,1007.27
2016-07-29T02:32:44.598Z,1007.27
2016-07-29T02:33:44.604Z,1007.29
2016-07-29T02:34:44.611Z,1007.3
2016-07-29T02:35:44.618Z,1007.26
2016-07-29T02:36:45.375Z,1007.31
2016-07-29T02:37:44.631Z,1007.3
2016-07-29T02:38:44.641Z,1007.28
2016-07-29T02:39:44.643Z,1007.27
2016-07-29T02:40:44.647Z,1007.23
2016-07-29T02:41:44.654Z,1007.25
2016-07-29T02:42:44.660Z,1007.25
2016-07-29T02:43:44.665Z,1007.3
2016-07-29T02:44:44.671Z,1007.27
2016-07-29T02:45:44.677Z,1007.28
2016-07-29T02:46:44.684Z,1007.27
2016-07-29T02:47:44.688Z,1007.26
2016-07-29T02:48:44.695Z,1007.25
2016-07-29T02:49:44.701Z,1007.3
2016-07-29T02:50:44.706Z,1007.24
2016-07-29T02:51:44.713Z,1007.25
2016-07-29T02:52:44.719Z,1007.19
2016-07-29T02:53:44.725Z,1007.26
2016-07-29T02:54:44.732Z,1007.27
2016-07-29T02:55:44.736Z,1007.23
2016-07-29T02:56:44.743Z,1007.23
2016-07-29T02:57:44.748Z,1007.22
2016-07-29T02:58:45.053Z,1007.2
2016-07-29T02:59:44.766Z,1007.18
2016-07-29T03:00:44.765Z,1007.22
2016-07-29T03:01:44.775Z,1007.19
2016-07-29T03:02:44.775Z,1007.22
2016-07-29T03:03:44.783Z,1007.23
2016-07-29T03:04:44.789Z,1007.22
2016-07-29T03:05:44.793Z,1007.2
2016-07-29T03:06:44.855Z,1007.2
2016-07-29T03:07:44.807Z,1007.21
2016-07-29T03:08:44.814Z,1007.2
2016-07-29T03:09:44.818Z,1007.2
2016-07-29T03:10:44.830Z,1007.19
2016-07-29T03:11:44.832Z,1007.23
2016-07-29T03:12:44.838Z,1007.19
2016-07-29T03:13:44.944Z,1007.19
2016-07-29T03:14:44.849Z,1007.16
2016-07-29T03:15:44.857Z,1007.16
2016-07-29T03:16:44.863Z,1007.18
2016-07-29T03:17:44.868Z,1007.12
2016-07-29T03:18:44.873Z,1007.17
2016-07-29T03:19:44.880Z,1007.08
2016-07-29T03:20:44.885Z,1007.1
2016-07-29T03:21:44.892Z,1007.12
2016-07-29T03:22:44.898Z,1007.18
2016-07-29T03:23:44.908Z,1007.16
2016-07-29T03:25:44.916Z,1007.18
2016-07-29T03:26:44.921Z,1007.15
2016-07-29T03:27:44.927Z,1007.17
2016-07-29T03:28:44.934Z,1007.17
2016-07-29T03:29:44.940Z,1007.18
2016-07-29T03:30:44.945Z,1007.17
2016-07-29T03:31:44.952Z,1007.14
2016-07-29T03:32:44.958Z,1007.13
2016-07-29T03:33:44.965Z,1007.12
2016-07-29T03:34:44.970Z,1007.15
2016-07-29T03:35:45.426Z,1007.11
2016-07-29T03:36:44.981Z,1007.18
2016-07-29T03:37:44.987Z,1007.16
2016-07-29T03:38:44.990Z,1007.15
2016-07-29T03:39:44.997Z,1007.19
2016-07-29T03:40:45.002Z,1007.17
2016-07-29T03:41:45.011Z,1007.19
2016-07-29T03:42:45.015Z,1007.19
2016-07-29T03:43:45.022Z,1007.17
2016-07-29T03:44:45.026Z,1007.2
2016-07-29T03:45:45.033Z,1007.19
2016-07-29T03:46:45.040Z,1007.18
2016-07-29T03:47:45.047Z,1007.19
2016-07-29T03:48:45.052Z,1007.21
2016-07-29T03:49:45.058Z,1007.19
2016-07-29T03:50:45.064Z,1007.19
2016-07-29T03:51:45.070Z,1007.18
2016-07-29T03:52:45.079Z,1007.18
2016-07-29T03:53:45.081Z,1007.22
2016-07-29T03:54:45.089Z,1007.21
2016-07-29T03:55:45.096Z,1007.19
2016-07-29T03:56:45.101Z,1007.23
2016-07-29T03:57:45.108Z,1007.21
2016-07-29T03:58:45.114Z,1007.25
2016-07-29T03:59:46.219Z,1007.22
2016-07-29T04:00:45.126Z,1007.18
2016-07-29T04:01:45.132Z,1007.18
2016-07-29T04:02:45.138Z,1007.18
2016-07-29T04:03:45.155Z,1007.19
2016-07-29T04:04:45.149Z,1007.17
2016-07-29T04:05:45.154Z,1007.16
2016-07-29T04:06:45.162Z,1007.2
2016-07-29T04:07:45.166Z,1007.18
2016-07-29T04:08:45.171Z,1007.17
2016-07-29T04:09:45.177Z,1007.2
2016-07-29T04:10:45.183Z,1007.14
2016-07-29T04:11:45.188Z,1007.17
2016-07-29T04:12:45.194Z,1007.17
2016-07-29T04:13:45.202Z,1007.19
2016-07-29T04:14:45.208Z,1007.19
2016-07-29T04:15:45.211Z,1007.15
2016-07-29T04:16:45.368Z,1007.14
2016-07-29T04:17:45.225Z,1007.15
2016-07-29T04:18:45.230Z,1007.13
2016-07-29T04:19:45.236Z,1007.17
2016-07-29T04:20:45.243Z,1007.15
2016-07-29T04:21:45.799Z,1007.14
2016-07-29T04:22:45.252Z,1007.16
2016-07-29T04:23:45.259Z,1007.08
2016-07-29T04:25:45.272Z,1007.1
2016-07-29T04:26:45.276Z,1007.06
2016-07-29T04:27:45.282Z,1007.1
2016-07-29T04:28:45.288Z,1007.07
2016-07-29T04:29:45.295Z,1007.12
2016-07-29T04:30:45.299Z,1007.09
2016-07-29T04:31:45.306Z,1007.06
2016-07-29T04:32:45.312Z,1007.03
2016-07-29T04:33:45.318Z,1007.05
2016-07-29T04:34:45.324Z,1007.06
2016-07-29T04:35:45.329Z,1007.01
2016-07-29T04:36:45.333Z,1006.99
2016-07-29T04:37:45.339Z,1007.03
2016-07-29T04:38:45.344Z,1007.03
2016-07-29T04:39:45.351Z,1007.02
2016-07-29T04:40:45.357Z,1007.04
2016-07-29T04:41:45.363Z,1007.06
2016-07-29T04:42:45.368Z,1007.04
2016-07-29T04:43:45.930Z,1007.01
2016-07-29T04:44:45.378Z,1007.05
2016-07-29T04:45:45.384Z,1007.04
2016-07-29T04:46:45.392Z,1007.03
2016-07-29T04:47:45.399Z,1007.01
2016-07-29T04:48:45.402Z,1007.01
2016-07-29T04:49:45.409Z,1007.01
2016-07-29T04:50:45.412Z,1007
2016-07-29T04:51:45.420Z,1007
2016-07-29T04:52:45.422Z,1006.96
2016-07-29T04:53:45.431Z,1006.96
2016-07-29T04:54:45.437Z,1006.95
2016-07-29T04:55:45.440Z,1006.95
2016-07-29T04:56:45.446Z,1006.9
2016-07-29T04:57:45.454Z,1006.91
2016-07-29T04:58:45.459Z,1006.97
2016-07-29T04:59:45.464Z,1006.92
2016-07-29T05:00:45.471Z,1006.93
2016-07-29T05:01:45.476Z,1006.93
2016-07-29T05:02:45.481Z,1006.93
2016-07-29T05:03:45.487Z,1006.93
2016-07-29T05:04:45.493Z,1006.9
2016-07-29T05:05:45.700Z,1006.96
2016-07-29T05:06:45.505Z,1006.97
2016-07-29T05:07:45.510Z,1006.94
2016-07-29T05:08:45.515Z,1006.92
2016-07-29T05:09:45.521Z,1006.95
2016-07-29T05:10:45.526Z,1006.9
2016-07-29T05:11:45.532Z,1006.97
2016-07-29T05:12:45.539Z,1006.93
2016-07-29T05:13:45.548Z,1006.94
2016-07-29T05:14:45.548Z,1006.92
2016-07-29T05:15:45.555Z,1006.92
2016-07-29T05:16:45.562Z,1006.91
2016-07-29T05:17:45.568Z,1006.91
2016-07-29T05:18:45.571Z,1006.87
2016-07-29T05:19:45.629Z,1006.87
2016-07-29T05:20:45.584Z,1006.88
2016-07-29T05:21:45.587Z,1006.91
2016-07-29T05:22:45.595Z,1006.91
2016-07-29T05:23:45.601Z,1006.91
2016-07-29T05:24:45.656Z,1006.94
2016-07-29T05:25:45.613Z,1006.94
2016-07-29T05:26:45.618Z,1006.94
2016-07-29T05:27:45.624Z,1006.96
2016-07-29T05:28:45.629Z,1006.96
2016-07-29T05:29:46.586Z,1007
2016-07-29T05:30:45.641Z,1006.98
2016-07-29T05:31:45.646Z,1007
2016-07-29T05:32:45.653Z,1007.01
2016-07-29T05:33:45.658Z,1006.99
2016-07-29T05:34:45.665Z,1007.01
2016-07-29T05:35:45.672Z,1007.04
2016-07-29T05:36:45.678Z,1007.02
2016-07-29T05:37:45.684Z,1007.06
2016-07-29T05:38:45.690Z,1007.03
2016-07-29T05:39:45.697Z,1007.02
2016-07-29T05:40:45.703Z,1007.04
2016-07-29T05:41:45.710Z,1007.05
2016-07-29T05:42:45.716Z,1007.04
2016-07-29T05:43:45.721Z,1007.01
2016-07-29T05:44:45.728Z,1007
2016-07-29T05:45:45.735Z,1006.98
2016-07-29T05:46:45.739Z,1007
2016-07-29T05:47:45.746Z,1007
2016-07-29T05:48:45.752Z,1006.95
2016-07-29T05:49:45.759Z,1006.96
2016-07-29T05:50:45.764Z,1007
2016-07-29T05:51:45.921Z,1006.98
2016-07-29T05:52:45.776Z,1007.04
2016-07-29T05:53:45.783Z,1006.96
2016-07-29T05:54:45.787Z,1006.98
2016-07-29T05:55:45.794Z,1007.01
2016-07-29T05:56:45.799Z,1007.6
2016-07-29T05:57:45.804Z,1007.04
2016-07-29T05:58:45.812Z,1007.04
2016-07-29T05:59:45.816Z,1007.02
2016-07-29T06:00:45.823Z,1007.1
2016-07-29T06:01:45.829Z,1007.27
2016-07-29T06:02:45.834Z,1007.49
2016-07-29T06:03:45.843Z,1007.82
2016-07-29T06:04:45.849Z,1007.27
2016-07-29T06:05:45.855Z,1006.99
2016-07-29T06:06:45.861Z,1006.96
2016-07-29T06:07:45.869Z,1007
2016-07-29T06:08:45.874Z,1007.01
2016-07-29T06:09:45.889Z,1007.01
2016-07-29T06:10:45.887Z,1007.1
2016-07-29T06:11:45.894Z,1006.93
2016-07-29T06:12:45.899Z,1006.92
2016-07-29T06:13:45.910Z,1006.85
2016-07-29T06:14:45.915Z,1006.9
2016-07-29T06:15:46.770Z,1007.25
2016-07-29T06:16:45.925Z,1007.95
2016-07-29T06:17:45.931Z,1007.97
2016-07-29T06:18:45.938Z,1007.62
2016-07-29T06:19:45.944Z,1007.1
2016-07-29T06:20:45.951Z,1006.92
2016-07-29T06:21:45.958Z,1006.93
2016-07-29T06:22:45.965Z,1006.9
2016-07-29T06:23:45.972Z,1006.85
2016-07-29T06:24:45.977Z,1006.81
2016-07-29T06:25:45.983Z,1006.81
2016-07-29T06:26:45.995Z,1006.79
2016-07-29T06:27:45.998Z,1006.81
2016-07-29T06:28:46.004Z,1006.83
2016-07-29T06:29:46.014Z,1007.03
2016-07-29T06:30:46.018Z,1006.93
2016-07-29T06:31:46.039Z,1006.86
2016-07-29T06:32:46.044Z,1006.87
2016-07-29T06:33:46.051Z,1006.88
2016-07-29T06:34:46.052Z,1006.99
2016-07-29T06:35:46.053Z,1007.01
2016-07-29T06:36:46.061Z,1007.03
2016-07-29T06:37:46.617Z,1007.82
2016-07-29T06:38:46.074Z,1006.98
2016-07-29T06:39:46.100Z,1007.3
2016-07-29T06:40:46.104Z,1007.14
2016-07-29T06:41:46.112Z,1008.06
2016-07-29T06:42:46.118Z,1007
2016-07-29T06:43:46.111Z,1008.19
2016-07-29T06:44:46.132Z,1007.28
2016-07-29T06:45:46.128Z,1007.03
2016-07-29T06:46:46.134Z,1006.95
2016-07-29T06:47:46.144Z,1006.88
2016-07-29T06:48:46.149Z,1006.86
2016-07-29T06:49:46.157Z,1007.57
2016-07-29T06:50:46.172Z,1006.92
2016-07-29T06:51:46.173Z,1006.9
2016-07-29T06:53:46.187Z,1007.28
2016-07-29T06:54:46.193Z,1006.84
2016-07-29T06:55:46.203Z,1006.82
2016-07-29T06:56:46.208Z,1006.74
2016-07-29T06:57:46.217Z,1006.73
2016-07-29T06:58:46.225Z,1006.7
2016-07-29T06:59:46.332Z,1006.74
2016-07-29T07:00:46.239Z,1006.68
2016-07-29T07:01:46.262Z,1006.71
2016-07-29T07:02:46.266Z,1006.91
2016-07-29T07:03:46.261Z,1006.76
2016-07-29T07:04:46.270Z,1006.82
2016-07-29T07:05:46.278Z,1006.87
2016-07-29T07:06:46.283Z,1006.77
2016-07-29T07:07:46.292Z,1006.79
2016-07-29T07:08:46.299Z,1006.81
2016-07-29T07:09:46.306Z,1006.82
2016-07-29T07:10:46.314Z,1006.76
2016-07-29T07:11:46.319Z,1006.85
2016-07-29T07:12:46.328Z,1006.83
2016-07-29T07:13:46.336Z,1006.83
2016-07-29T07:14:46.492Z,1006.82
2016-07-29T07:15:46.349Z,1006.82
2016-07-29T07:16:46.357Z,1006.76
2016-07-29T07:17:46.365Z,1006.75
2016-07-29T07:18:46.371Z,1006.71
2016-07-29T07:19:46.377Z,1006.73
2016-07-29T07:20:46.385Z,1006.73
2016-07-29T07:21:46.392Z,1006.69
2016-07-29T07:22:46.398Z,1006.68
2016-07-29T07:23:46.405Z,1006.66
2016-07-29T07:24:46.414Z,1006.82
2016-07-29T07:25:46.425Z,1006.85
2016-07-29T07:26:46.427Z,1006.79
2016-07-29T07:27:46.436Z,1006.96
2016-07-29T07:28:46.442Z,1006.83
2016-07-29T07:29:46.449Z,1006.69
2016-07-29T07:30:46.456Z,1006.7
2016-07-29T07:31:46.464Z,1006.95
2016-07-29T07:32:46.470Z,1006.75
2016-07-29T07:33:46.476Z,1006.79
2016-07-29T07:34:46.484Z,1006.82
2016-07-29T07:35:46.492Z,1006.8
2016-07-29T07:36:46.507Z,1006.94
2016-07-29T07:37:46.508Z,1006.7
2016-07-29T07:38:46.516Z,1006.84
2016-07-29T07:39:46.522Z,1006.79
2016-07-29T07:40:46.530Z,1006.77
2016-07-29T07:41:46.539Z,1006.81
2016-07-29T07:42:46.547Z,1006.75
2016-07-29T07:43:46.555Z,1006.74
2016-07-29T07:44:46.564Z,1006.73
2016-07-29T07:45:47.572Z,1006.69
2016-07-29T07:46:46.579Z,1006.68
2016-07-29T07:47:46.585Z,1006.65
2016-07-29T07:48:46.594Z,1006.61
2016-07-29T07:49:46.602Z,1006.64
2016-07-29T07:50:46.611Z,1006.62
2016-07-29T07:51:46.618Z,1006.67
2016-07-29T07:52:46.628Z,1006.59
2016-07-29T07:53:46.634Z,1006.66
2016-07-29T07:54:46.645Z,1006.66
2016-07-29T07:55:46.648Z,1006.61
2016-07-29T07:56:46.657Z,1006.62
2016-07-29T07:57:46.665Z,1006.61
2016-07-29T07:58:46.672Z,1006.6
2016-07-29T07:59:46.678Z,1006.58
2016-07-29T08:00:47.538Z,1006.62
2016-07-29T08:01:46.694Z,1006.64
2016-07-29T08:02:46.701Z,1006.64
2016-07-29T08:03:46.710Z,1006.64
2016-07-29T08:04:46.716Z,1006.59
2016-07-29T08:05:46.722Z,1006.61
2016-07-29T08:06:46.730Z,1006.64
2016-07-29T08:07:46.741Z,1006.63
2016-07-29T08:08:46.745Z,1006.64
2016-07-29T08:09:46.750Z,1006.68
2016-07-29T08:10:46.757Z,1006.63
2016-07-29T08:11:46.765Z,1006.62
2016-07-29T08:12:46.773Z,1006.63
2016-07-29T08:13:46.778Z,1006.66
2016-07-29T08:14:46.836Z,1006.64
2016-07-29T08:15:46.792Z,1006.62
2016-07-29T08:16:46.798Z,1006.62
2016-07-29T08:17:46.806Z,1006.64
2016-07-29T08:18:46.813Z,1006.61
2016-07-29T08:19:46.820Z,1006.63
2016-07-29T08:20:46.877Z,1006.61
2016-07-29T08:21:46.834Z,1006.69
2016-07-29T08:22:46.841Z,1006.65
2016-07-29T08:23:46.847Z,1006.64
2016-07-29T08:24:46.855Z,1006.67
2016-07-29T08:25:46.914Z,1006.63
2016-07-29T08:26:46.870Z,1006.62
2016-07-29T08:27:46.878Z,1006.61
2016-07-29T08:28:46.885Z,1006.62
2016-07-29T08:29:46.898Z,1006.63
2016-07-29T08:30:46.899Z,1006.6
2016-07-29T08:31:46.906Z,1006.59
2016-07-29T08:32:46.964Z,1006.56
2016-07-29T08:33:46.922Z,1006.6
2016-07-29T08:34:46.928Z,1006.59
2016-07-29T08:35:46.934Z,1006.59
2016-07-29T08:36:46.940Z,1006.62
2016-07-29T08:37:46.949Z,1006.61
2016-07-29T08:38:46.958Z,1006.67
2016-07-29T08:39:46.963Z,1006.67
2016-07-29T08:40:46.982Z,1006.62
2016-07-29T08:41:46.978Z,1006.64
2016-07-29T08:42:46.984Z,1006.69
2016-07-29T08:43:46.991Z,1006.69
2016-07-29T08:44:47.000Z,1006.71
2016-07-29T08:45:47.007Z,1006.68
2016-07-29T08:46:47.013Z,1006.7
2016-07-29T08:47:47.020Z,1006.71
2016-07-29T08:48:47.027Z,1006.69
2016-07-29T08:49:47.033Z,1006.73
2016-07-29T08:50:47.040Z,1006.68
2016-07-29T08:51:47.045Z,1006.68
2016-07-29T08:52:47.102Z,1006.71
2016-07-29T08:53:47.058Z,1006.7
2016-07-29T08:55:47.069Z,1006.67
2016-07-29T08:56:47.128Z,1006.72
2016-07-29T08:57:47.085Z,1006.73
2016-07-29T08:58:47.091Z,1006.7
2016-07-29T08:59:47.097Z,1006.7
2016-07-29T09:00:47.104Z,1006.67
2016-07-29T09:01:47.109Z,1006.66
2016-07-29T09:02:47.121Z,1006.66
2016-07-29T09:04:47.129Z,1006.66
2016-07-29T09:05:47.135Z,1006.68
2016-07-29T09:06:48.093Z,1006.71
2016-07-29T09:07:47.149Z,1006.72
2016-07-29T09:08:47.153Z,1006.67
2016-07-29T09:09:47.161Z,1006.64
2016-07-29T09:10:47.168Z,1006.62
2016-07-29T09:11:47.173Z,1006.6
2016-07-29T09:12:47.180Z,1006.62
2016-07-29T09:13:47.184Z,1006.61
2016-07-29T09:14:47.244Z,1006.65
2016-07-29T09:15:47.204Z,1006.68
2016-07-29T09:16:47.253Z,1006.64
2016-07-29T09:17:47.262Z,1006.69
2016-07-29T09:18:47.219Z,1006.67
2016-07-29T09:19:47.226Z,1006.68
2016-07-29T09:20:47.232Z,1006.66
2016-07-29T09:21:47.242Z,1006.69
2016-07-29T09:22:47.244Z,1006.61
2016-07-29T09:23:47.250Z,1006.67
2016-07-29T09:24:47.256Z,1006.63
2016-07-29T09:25:47.264Z,1006.65
2016-07-29T09:26:47.268Z,1006.63
2016-07-29T09:27:47.280Z,1006.65
2016-07-29T09:28:48.184Z,1006.61
2016-07-29T09:29:47.289Z,1006.59
2016-07-29T09:30:47.294Z,1006.64
2016-07-29T09:31:47.301Z,1006.6
2016-07-29T09:32:47.308Z,1006.64
2016-07-29T09:33:47.313Z,1006.6
2016-07-29T09:34:47.323Z,1006.63
2016-07-29T09:35:47.324Z,1006.67
2016-07-29T09:36:47.331Z,1006.63
2016-07-29T09:37:47.338Z,1006.65
2016-07-29T09:38:47.344Z,1006.65
2016-07-29T09:39:47.351Z,1006.59
2016-07-29T09:40:47.354Z,1006.65
2016-07-29T09:41:47.366Z,1006.57
2016-07-29T09:42:47.368Z,1006.62
2016-07-29T09:43:48.426Z,1006.63
2016-07-29T09:44:47.380Z,1006.67
2016-07-29T09:45:47.390Z,1006.64
2016-07-29T09:46:47.395Z,1006.64
2016-07-29T09:47:47.400Z,1006.66
2016-07-29T09:48:47.404Z,1006.63
2016-07-29T09:49:47.410Z,1006.62
2016-07-29T09:50:47.424Z,1006.62
2016-07-29T09:51:47.422Z,1006.62
2016-07-29T09:52:47.428Z,1006.58
2016-07-29T09:53:47.436Z,1006.6
2016-07-29T09:54:47.439Z,1006.58
2016-07-29T09:55:47.448Z,1006.58
2016-07-29T09:56:47.453Z,1006.61
2016-07-29T09:57:47.461Z,1006.58
2016-07-29T09:58:47.467Z,1006.6
2016-07-29T09:59:47.474Z,1006.57
2016-07-29T10:00:47.478Z,1006.57
2016-07-29T10:01:47.490Z,1006.61
2016-07-29T10:02:47.490Z,1006.62
2016-07-29T10:03:47.548Z,1006.57
2016-07-29T10:04:47.505Z,1006.62
2016-07-29T10:05:48.111Z,1006.6
2016-07-29T10:06:47.516Z,1006.67
2016-07-29T10:07:47.522Z,1006.61
2016-07-29T10:08:47.528Z,1006.61
2016-07-29T10:09:47.537Z,1006.6
2016-07-29T10:10:47.542Z,1006.62
2016-07-29T10:11:47.549Z,1006.61
2016-07-29T10:12:47.554Z,1006.6
2016-07-29T10:13:47.560Z,1006.56
2016-07-29T10:14:47.566Z,1006.55
2016-07-29T10:15:47.571Z,1006.54
2016-07-29T10:16:47.585Z,1006.55
2016-07-29T10:17:47.585Z,1006.53
2016-07-29T10:18:47.593Z,1006.54
2016-07-29T10:19:47.599Z,1006.57
2016-07-29T10:20:47.605Z,1006.56
2016-07-29T10:21:47.611Z,1006.57
2016-07-29T10:22:47.618Z,1006.5
2016-07-29T10:23:47.624Z,1006.52
2016-07-29T10:24:47.630Z,1006.5
2016-07-29T10:25:47.637Z,1006.48
2016-07-29T10:26:47.645Z,1006.54
2016-07-29T10:27:48.251Z,1006.5
2016-07-29T10:28:47.656Z,1006.53
2016-07-29T10:29:47.663Z,1006.49
2016-07-29T10:30:47.671Z,1006.5
2016-07-29T10:31:47.678Z,1006.49
2016-07-29T10:32:47.734Z,1006.48
2016-07-29T10:33:47.742Z,1006.45
2016-07-29T10:34:47.698Z,1006.43
2016-07-29T10:35:47.705Z,1006.39
2016-07-29T10:36:47.712Z,1006.42
2016-07-29T10:37:47.720Z,1006.38
2016-07-29T10:38:47.725Z,1006.33
2016-07-29T10:39:47.731Z,1006.4
2016-07-29T10:40:47.740Z,1006.39
2016-07-29T10:41:47.744Z,1006.34
2016-07-29T10:42:47.749Z,1006.35
2016-07-29T10:43:47.756Z,1006.32
2016-07-29T10:44:47.761Z,1006.33
2016-07-29T10:45:47.769Z,1006.36
2016-07-29T10:46:47.774Z,1006.35
2016-07-29T10:47:47.780Z,1006.31
2016-07-29T10:48:47.787Z,1006.35
2016-07-29T10:49:48.293Z,1006.33
2016-07-29T10:50:47.798Z,1006.37
2016-07-29T10:51:47.807Z,1006.34
2016-07-29T10:52:47.812Z,1006.39
2016-07-29T10:53:47.820Z,1006.35
2016-07-29T10:55:47.832Z,1006.43
2016-07-29T10:56:47.839Z,1006.35
2016-07-29T10:57:47.845Z,1006.37
2016-07-29T10:58:47.852Z,1006.33
2016-07-29T10:59:47.859Z,1006.32
2016-07-29T11:00:47.966Z,1006.27
2016-07-29T11:01:47.873Z,1006.26
2016-07-29T11:02:47.880Z,1006.28
2016-07-29T11:03:47.886Z,1006.3
2016-07-29T11:04:47.943Z,1006.26
2016-07-29T11:05:47.900Z,1006.22
2016-07-29T11:06:47.907Z,1006.22
2016-07-29T11:07:47.914Z,1006.17
2016-07-29T11:08:47.970Z,1006.19
2016-07-29T11:09:47.926Z,1006.2
2016-07-29T11:10:48.009Z,1006.21
2016-07-29T11:11:48.140Z,1006.19
2016-07-29T11:12:47.947Z,1006.19
2016-07-29T11:13:47.952Z,1006.18
2016-07-29T11:14:47.960Z,1006.22
2016-07-29T11:15:47.966Z,1006.24
2016-07-29T11:16:47.972Z,1006.17
2016-07-29T11:17:47.979Z,1006.21
2016-07-29T11:18:48.063Z,1006.19
2016-07-29T11:19:47.994Z,1006.16
2016-07-29T11:20:47.998Z,1006.16
2016-07-29T11:21:48.006Z,1006.18
2016-07-29T11:22:48.013Z,1006.17
2016-07-29T11:23:48.018Z,1006.17
2016-07-29T11:24:48.025Z,1006.17
2016-07-29T11:25:48.031Z,1006.19
2016-07-29T11:26:48.589Z,1006.23
2016-07-29T11:27:48.044Z,1006.24
2016-07-29T11:28:48.052Z,1006.17
2016-07-29T11:29:48.058Z,1006.19
2016-07-29T11:30:48.064Z,1006.14
2016-07-29T11:31:48.070Z,1006.15
2016-07-29T11:32:48.078Z,1006.12
2016-07-29T11:33:48.084Z,1006.1
2016-07-29T11:34:48.089Z,1006.12
2016-07-29T11:35:48.097Z,1006.11
2016-07-29T11:36:48.104Z,1006.11
2016-07-29T11:37:48.137Z,1006.13
2016-07-29T11:38:48.116Z,1006.09
2016-07-29T11:39:48.123Z,1006.07
2016-07-29T11:40:48.129Z,1006.09
2016-07-29T11:41:48.135Z,1006.04
2016-07-29T11:42:48.142Z,1006.03
2016-07-29T11:43:48.148Z,1006.06
2016-07-29T11:44:48.235Z,1006.03
2016-07-29T11:45:48.162Z,1006.03
2016-07-29T11:46:48.170Z,1006.03
2016-07-29T11:47:48.177Z,1006
2016-07-29T11:48:48.233Z,1006
2016-07-29T11:49:48.191Z,1005.97
2016-07-29T11:50:48.196Z,1005.96
2016-07-29T11:51:48.235Z,1005.93
2016-07-29T11:52:48.209Z,1005.95
2016-07-29T11:53:48.282Z,1005.93
2016-07-29T11:54:48.223Z,1005.9
2016-07-29T11:55:48.229Z,1005.91
2016-07-29T11:56:48.237Z,1005.89
2016-07-29T11:57:48.242Z,1005.94
2016-07-29T11:58:48.249Z,1005.96
2016-07-29T11:59:48.255Z,1005.97
2016-07-29T12:00:48.263Z,1005.99
2016-07-29T12:01:48.321Z,1005.96
2016-07-29T12:02:48.278Z,1005.93
2016-07-29T12:03:48.287Z,1005.89
2016-07-29T12:04:48.291Z,1005.88
2016-07-29T12:05:48.300Z,1005.87
2016-07-29T12:06:48.306Z,1005.9
2016-07-29T12:07:48.313Z,1005.93
2016-07-29T12:08:48.320Z,1005.93
2016-07-29T12:09:49.491Z,1005.94
2016-07-29T12:10:48.334Z,1005.93
2016-07-29T12:11:48.343Z,1005.93
2016-07-29T12:12:48.348Z,1005.94
2016-07-29T12:13:48.354Z,1005.95
2016-07-29T12:14:48.361Z,1005.94
2016-07-29T12:15:48.367Z,1005.95
2016-07-29T12:16:48.375Z,1005.91
2016-07-29T12:17:48.414Z,1005.9
2016-07-29T12:18:48.420Z,1005.9